Terminal Aerodrome Forecast
Issued by NWS

Home | Current Version | Previous Version | Text Only | Print | Product List | Glossary On
Versions: 1 2 3 4 5 6 7 8 9 10 11 12 13 14 15 16 17 18 19 20 21 22 23 24 25
000
FTUS46 KSEW 232000 AAA
TAFSEA
TAF AMD
KSEA 232005Z 2320/2424 VRB04KT P6SM -SHRA SCT020 OVC050
     FM232200 16005KT P6SM -RA SCT015 OVC030
     FM240200 16006KT 5SM -RA SCT012 OVC020
     FM240500 16008KT 3SM RA BR OVC012
     FM241200 20010G18KT 5SM -SHRA BR BKN022 OVC025
     FM241800 21010KT P6SM VCSH SCT035 BKN045=

USA.gov is the U.S. government's official web portal to all federal, state and local government web resources and services.